createdAt,value
2018-09-20T06:29:58.662Z,46.40
2018-09-20T06:32:00.689Z,45.00
2018-09-20T06:34:02.741Z,44.50
2018-09-20T06:36:04.828Z,44.80
2018-09-20T06:38:06.940Z,42.90
2018-09-20T06:40:09.219Z,42.50
2018-09-20T06:42:11.528Z,41.70
2018-09-20T06:44:13.774Z,40.90
2018-09-20T06:46:16.107Z,38.90
2018-09-20T06:48:28.997Z,37.00
2018-09-20T06:50:31.365Z,36.20
2018-09-20T06:52:40.008Z,33.40
2018-09-20T06:54:57.125Z,28.50
2018-09-20T06:59:30.846Z,26.20
2018-09-20T07:01:33.054Z,24.70
2018-09-20T07:03:35.199Z,22.40
2018-09-20T07:05:37.442Z,21.10
2018-09-20T07:07:39.729Z,20.00
2018-09-20T07:09:41.930Z,20.10
2018-09-20T07:11:44.115Z,19.30
2018-09-20T07:13:46.279Z,18.80
2018-09-20T07:15:48.401Z,18.30
2018-09-20T07:17:50.707Z,17.20
2018-09-20T07:19:53.129Z,16.90
2018-09-20T07:21:55.921Z,16.30
2018-09-20T07:23:58.057Z,16.30
2018-09-20T07:26:00.153Z,15.00
2018-09-20T07:28:02.432Z,15.50
2018-09-20T07:30:04.761Z,15.70
2018-09-20T07:32:07.182Z,12.80
2018-09-20T07:34:09.446Z,14.20
2018-09-20T07:36:11.747Z,13.00
2018-09-20T07:38:13.954Z,13.20
2018-09-20T07:40:16.123Z,11.90
2018-09-20T07:42:18.268Z,9.80
2018-09-20T07:44:20.352Z,8.90
2018-09-20T07:46:22.515Z,10.10
2018-09-20T07:48:24.763Z,8.20
2018-09-20T07:50:26.865Z,7.30
2018-09-20T07:52:29.078Z,6.50
2018-09-20T07:54:31.278Z,7.60
2018-09-20T07:56:33.615Z,5.10
2018-09-20T07:58:35.929Z,5.20
2018-09-20T08:00:38.282Z,5.90
2018-09-20T08:02:40.509Z,4.50
2018-09-20T08:04:42.712Z,4.60
2018-09-20T08:06:45.046Z,4.20
2018-09-20T08:08:47.326Z,4.00
2018-09-20T08:10:49.522Z,3.60
2018-09-20T08:12:51.985Z,3.20
2018-09-20T08:14:54.234Z,2.60
2018-09-20T08:16:56.506Z,1.50
2018-09-20T08:18:58.791Z,2.40
2018-09-20T08:21:01.046Z,2.40
2018-09-20T08:23:03.422Z,1.20
2018-09-20T08:25:06.246Z,2.20
2018-09-20T08:27:08.865Z,1.00
2018-09-20T08:29:11.149Z,1.00
2018-09-20T08:31:13.476Z,1.00
2018-09-20T08:33:15.729Z,1.00
2018-09-20T08:35:18.083Z,1.00
2018-09-20T08:37:20.373Z,1.00
2018-09-20T08:39:22.561Z,1.00
2018-09-20T08:41:24.942Z,1.00
2018-09-20T08:43:27.226Z,1.00
2018-09-20T08:45:29.496Z,1.00
2018-09-20T08:47:31.808Z,1.00
2018-09-20T08:49:34.126Z,1.00
2018-09-20T08:51:36.437Z,1.00
2018-09-20T08:53:38.765Z,1.00
2018-09-20T08:55:41.096Z,1.00
2018-09-20T08:57:49.004Z,1.00
2018-09-20T08:59:51.290Z,1.00
2018-09-20T09:01:53.665Z,1.00
2018-09-20T09:03:55.934Z,1.00
2018-09-20T09:05:58.186Z,1.00
2018-09-20T09:08:00.406Z,1.00
2018-09-20T09:10:02.714Z,1.00
2018-09-20T09:12:05.423Z,1.00
2018-09-20T09:14:08.011Z,1.00
2018-09-20T09:16:10.306Z,1.00
2018-09-20T09:18:12.716Z,1.00
2018-09-20T09:20:15.042Z,1.00
2018-09-20T09:22:17.314Z,1.00
2018-09-20T09:24:19.615Z,1.00
2018-09-20T09:26:21.930Z,1.00
2018-09-20T09:28:24.263Z,1.00
2018-09-20T09:30:26.562Z,1.00
2018-09-20T09:32:28.869Z,1.00
2018-09-20T09:34:31.345Z,1.00
2018-09-20T09:36:33.621Z,1.00
2018-09-20T09:38:35.914Z,1.00
2018-09-20T09:40:38.190Z,1.00
2018-09-20T09:42:40.479Z,1.00
2018-09-20T09:44:42.818Z,1.00
2018-09-20T09:47:06.392Z,1.00
2018-09-20T09:49:08.692Z,1.00
2018-09-20T09:51:11.033Z,1.00
2018-09-20T09:53:13.346Z,1.00
2018-09-20T09:55:16.776Z,1.00
2018-09-20T09:57:19.098Z,1.00
2018-09-20T09:59:21.335Z,1.00
2018-09-20T10:01:23.581Z,1.00
2018-09-20T10:03:25.761Z,1.00
2018-09-20T10:05:28.270Z,1.00
2018-09-20T10:07:30.679Z,1.00
2018-09-20T10:09:32.839Z,1.00
2018-09-20T10:11:35.307Z,1.00
2018-09-20T10:13:37.724Z,1.00
2018-09-20T10:15:39.983Z,1.00
2018-09-20T10:17:42.230Z,1.00
2018-09-20T10:19:44.509Z,1.00
2018-09-20T10:21:51.982Z,1.00
2018-09-20T10:23:54.241Z,1.00
2018-09-20T10:25:56.502Z,1.00
2018-09-20T10:27:58.772Z,1.00
2018-09-20T10:30:00.998Z,1.00
2018-09-20T10:32:03.146Z,1.00
2018-09-20T10:34:05.849Z,1.00
2018-09-20T10:36:07.971Z,1.00
2018-09-20T10:38:10.276Z,1.00
2018-09-20T10:40:12.469Z,1.00
2018-09-20T10:42:14.708Z,1.00
2018-09-20T10:44:17.032Z,1.00
2018-09-20T10:46:19.425Z,1.00
2018-09-20T10:48:21.656Z,1.00
2018-09-20T10:50:23.915Z,1.00
2018-09-20T10:52:26.514Z,1.00
2018-09-20T10:54:28.784Z,1.00
2018-09-20T10:56:31.141Z,1.00
2018-09-20T10:58:33.345Z,1.00
2018-09-20T11:00:35.775Z,1.00
2018-09-20T11:02:38.089Z,1.00
2018-09-20T11:04:40.364Z,1.00
2018-09-20T11:06:42.695Z,1.00
2018-09-20T11:08:44.858Z,1.00
2018-09-20T11:10:47.132Z,1.00
2018-09-20T11:12:49.389Z,1.00
2018-09-20T11:14:51.728Z,1.00
2018-09-20T11:16:54.089Z,1.00
2018-09-20T11:18:56.446Z,1.00
2018-09-20T11:20:58.731Z,1.00
2018-09-20T11:23:00.940Z,1.00
2018-09-20T11:25:03.255Z,1.00
2018-09-20T11:27:05.578Z,1.00
2018-09-20T11:29:07.870Z,1.00
2018-09-20T11:31:10.100Z,1.00
2018-09-20T11:33:12.379Z,1.00
2018-09-20T11:35:14.817Z,1.00
2018-09-20T11:37:16.965Z,1.00
2018-09-20T11:39:24.383Z,1.00
2018-09-20T11:41:28.573Z,1.00
2018-09-20T11:43:30.682Z,1.00
2018-09-20T11:45:32.838Z,1.00
2018-09-20T11:47:34.968Z,1.00
2018-09-20T11:49:37.079Z,1.00
2018-09-20T11:51:39.204Z,1.00
2018-09-20T11:53:41.322Z,1.00
2018-09-20T11:55:59.942Z,1.00
2018-09-20T11:58:06.328Z,1.00
2018-09-20T12:00:08.446Z,1.00
2018-09-20T12:02:10.525Z,1.00
2018-09-20T12:04:13.621Z,1.00
2018-09-20T12:06:15.853Z,1.00
2018-09-20T12:08:17.949Z,1.00
2018-09-20T12:10:20.043Z,1.00
2018-09-20T12:12:22.187Z,1.00
2018-09-20T12:14:24.380Z,1.00
2018-09-20T12:16:26.554Z,1.00
2018-09-20T12:18:28.654Z,1.00
2018-09-20T12:20:30.762Z,1.00
2018-09-20T12:22:33.518Z,1.00
2018-09-20T12:24:35.588Z,1.00
2018-09-20T12:26:37.793Z,1.00
2018-09-20T12:28:39.917Z,1.00
2018-09-20T12:30:42.201Z,1.00
2018-09-20T12:32:44.342Z,1.00
2018-09-20T12:34:46.361Z,1.00
2018-09-20T12:36:48.502Z,1.00
2018-09-20T12:38:50.647Z,1.00
2018-09-20T12:40:52.718Z,1.00
2018-09-20T12:42:54.900Z,1.00
2018-09-20T12:44:56.989Z,1.00
2018-09-20T12:46:59.021Z,1.00
2018-09-20T12:49:01.387Z,1.00
2018-09-20T12:51:03.433Z,1.00
2018-09-20T12:53:05.521Z,1.00
2018-09-20T12:55:07.646Z,1.00
2018-09-20T12:57:09.930Z,1.00
2018-09-20T12:59:12.092Z,1.00
2018-09-20T13:01:14.397Z,1.00
2018-09-20T13:03:16.622Z,1.00
2018-09-20T13:05:18.725Z,1.00
2018-09-20T13:07:20.933Z,1.00
2018-09-20T13:09:23.017Z,1.00
2018-09-20T13:11:25.176Z,1.00
2018-09-20T13:13:27.282Z,1.00
2018-09-20T13:15:29.367Z,1.00
2018-09-20T13:17:31.450Z,1.00
2018-09-20T13:19:33.545Z,1.00
2018-09-20T13:21:35.706Z,1.00
2018-09-20T13:23:37.867Z,1.00
2018-09-20T13:25:40.225Z,1.00
2018-09-20T13:27:42.317Z,1.00
2018-09-20T13:29:44.481Z,1.00
2018-09-20T13:31:47.111Z,1.00
2018-09-20T13:33:49.397Z,1.00
2018-09-20T13:35:52.034Z,1.00
2018-09-20T13:37:55.192Z,1.00
2018-09-20T13:39:57.380Z,1.00
2018-09-20T13:42:00.259Z,1.00
2018-09-20T13:44:02.607Z,1.00
2018-09-20T13:46:04.867Z,1.00
2018-09-20T13:48:07.435Z,1.00
2018-09-20T13:50:09.827Z,1.00
2018-09-20T13:52:12.070Z,1.00
2018-09-20T13:54:15.036Z,1.00
2018-09-20T13:56:17.287Z,1.00
2018-09-20T13:58:19.419Z,1.00
2018-09-20T14:00:21.622Z,1.00
2018-09-20T14:02:23.791Z,1.00
2018-09-20T14:04:26.092Z,1.00
2018-09-20T14:06:28.317Z,1.00
2018-09-20T14:08:30.618Z,1.00
2018-09-20T14:10:42.496Z,1.00
2018-09-20T14:12:45.469Z,1.00
2018-09-20T14:14:47.678Z,1.00
2018-09-20T14:16:50.530Z,1.00
2018-09-20T14:18:52.647Z,1.00
2018-09-20T14:20:54.784Z,1.00
2018-09-20T14:22:57.070Z,1.00
2018-09-20T14:24:59.237Z,1.00
2018-09-20T14:27:01.932Z,1.00
2018-09-20T14:29:05.339Z,1.00
2018-09-20T14:31:08.368Z,1.00
2018-09-20T14:33:11.571Z,1.00
2018-09-20T14:35:14.648Z,1.00
2018-09-20T14:37:19.109Z,1.00
2018-09-20T14:39:21.216Z,1.00
2018-09-20T14:41:23.354Z,1.00
2018-09-20T14:43:26.122Z,1.00
2018-09-20T14:45:28.324Z,1.00
2018-09-20T14:47:30.495Z,1.00
2018-09-20T14:49:33.685Z,1.00
2018-09-20T14:51:39.464Z,1.00
2018-09-20T14:53:43.621Z,1.00
2018-09-20T14:55:46.638Z,1.00
2018-09-20T14:57:50.349Z,1.00
2018-09-20T14:59:52.468Z,1.00
2018-09-20T15:01:55.582Z,1.00
2018-09-20T15:03:58.123Z,1.00
2018-09-20T15:06:01.441Z,1.00
2018-09-20T15:08:03.887Z,1.00
2018-09-20T15:10:05.908Z,1.00
2018-09-20T15:12:08.084Z,1.00
2018-09-20T15:14:10.221Z,1.00
2018-09-20T15:53:13.818Z,1.00
2018-09-20T15:55:16.038Z,1.00
2018-09-20T15:57:20.025Z,1.00
2018-09-20T15:59:22.384Z,1.00
2018-09-20T16:01:24.437Z,1.00
2018-09-20T16:03:26.604Z,1.00
2018-09-20T16:05:28.734Z,1.00
2018-09-20T16:07:30.797Z,1.00
2018-09-20T16:09:32.900Z,1.00
2018-09-20T16:11:34.970Z,1.00
2018-09-20T16:13:37.010Z,1.00
2018-09-20T16:15:39.076Z,1.00
2018-09-20T16:17:41.122Z,1.00
2018-09-20T16:19:43.209Z,1.00
2018-09-20T16:21:45.264Z,1.00
2018-09-20T16:23:47.609Z,1.00
2018-09-20T16:25:49.652Z,1.00
2018-09-20T16:27:59.969Z,1.00
2018-09-20T16:30:24.291Z,1.00
2018-09-20T16:32:41.197Z,1.00
2018-09-20T16:34:52.529Z,1.00
2018-09-20T16:38:04.069Z,1.00
2018-09-20T16:40:07.061Z,1.00
2018-09-20T16:42:09.989Z,1.00
2018-09-20T16:44:12.085Z,1.00
2018-09-20T16:46:14.178Z,1.00
2018-09-20T16:48:16.262Z,1.00
2018-09-20T16:50:18.366Z,1.00
2018-09-20T16:52:20.413Z,1.00
2018-09-20T16:54:22.538Z,1.00
2018-09-20T16:56:24.585Z,1.00
2018-09-20T16:58:26.652Z,1.00
2018-09-20T17:00:28.730Z,1.00
2018-09-20T17:02:30.791Z,1.00
2018-09-20T17:04:32.898Z,1.00
2018-09-20T17:06:34.973Z,1.00
2018-09-20T17:08:37.068Z,1.00
2018-09-20T17:10:39.165Z,1.00
2018-09-20T17:12:41.253Z,1.00
2018-09-20T17:14:43.404Z,1.00
2018-09-20T17:16:45.479Z,1.00
2018-09-20T17:18:47.469Z,1.00
2018-09-20T17:20:49.544Z,1.00
2018-09-20T17:22:51.885Z,1.00
2018-09-20T17:24:54.228Z,1.00
2018-09-20T17:26:56.451Z,1.00
2018-09-20T17:28:58.617Z,1.00
2018-09-20T17:31:00.722Z,1.00
2018-09-20T17:33:02.780Z,1.00
2018-09-20T17:35:04.868Z,1.00
2018-09-20T17:37:07.453Z,1.00
2018-09-20T17:39:11.460Z,1.00
2018-09-20T17:41:17.381Z,1.00
2018-09-20T17:43:24.533Z,1.00
2018-09-20T17:45:26.762Z,1.00
2018-09-20T17:47:28.862Z,1.00
2018-09-20T17:49:30.857Z,1.00
2018-09-20T17:51:33.261Z,1.00
2018-09-20T17:53:35.933Z,1.00
2018-09-20T17:55:38.186Z,1.00
2018-09-20T17:57:40.621Z,1.00
2018-09-20T17:59:42.653Z,1.00
2018-09-20T18:01:44.697Z,1.00
2018-09-20T18:03:46.829Z,1.00
2018-09-20T18:05:48.942Z,1.00
2018-09-20T18:07:51.289Z,1.00
2018-09-20T18:09:53.357Z,1.00
2018-09-20T18:11:55.406Z,1.00
2018-09-20T18:13:57.455Z,1.00
2018-09-20T18:15:59.537Z,1.00
2018-09-20T18:18:02.224Z,1.00
2018-09-20T18:20:04.143Z,1.00
2018-09-20T18:22:06.308Z,1.00
2018-09-20T18:24:08.342Z,1.00
2018-09-20T18:26:10.430Z,1.00
2018-09-20T18:28:12.493Z,1.00
2018-09-20T18:30:14.525Z,1.00
2018-09-20T18:32:16.589Z,1.00
2018-09-20T18:34:18.687Z,1.00
2018-09-20T18:36:20.710Z,1.00
2018-09-20T18:38:22.856Z,1.20
2018-09-20T18:40:24.929Z,1.00
2018-09-20T18:42:26.955Z,1.00
2018-09-20T18:44:28.993Z,1.20
2018-09-20T18:46:31.046Z,1.00
2018-09-20T18:48:33.194Z,1.00
2018-09-20T18:50:35.213Z,1.10
2018-09-20T18:52:37.266Z,1.30
2018-09-20T18:54:39.326Z,3.10
2018-09-20T18:56:41.374Z,2.80
2018-09-20T18:58:43.405Z,3.20
2018-09-20T19:00:45.426Z,3.20
2018-09-20T19:02:47.477Z,3.20
2018-09-20T19:04:49.502Z,3.20
2018-09-20T19:06:51.543Z,3.20
2018-09-20T19:08:53.973Z,3.20
2018-09-20T19:10:56.028Z,3.20
2018-09-20T19:12:58.107Z,3.10
2018-09-20T19:15:00.078Z,3.40
2018-09-20T19:17:02.182Z,3.80
2018-09-20T19:19:04.414Z,4.70
2018-09-20T19:21:06.525Z,5.10
2018-09-20T19:23:08.509Z,4.50
2018-09-20T19:25:10.537Z,4.70
2018-09-20T19:27:12.545Z,4.90
2018-09-20T19:29:14.574Z,5.10
2018-09-20T19:31:16.612Z,5.70
2018-09-20T19:33:18.698Z,5.90
2018-09-20T19:35:20.768Z,5.00
2018-09-20T19:37:22.810Z,3.40
2018-09-20T19:39:24.853Z,3.60
2018-09-20T19:41:26.878Z,5.10
2018-09-20T19:43:28.917Z,5.40
2018-09-20T19:45:30.943Z,4.10
2018-09-20T19:47:32.998Z,5.80
2018-09-20T19:49:35.099Z,6.70
2018-09-20T19:51:37.212Z,6.30
2018-09-20T19:53:39.209Z,6.80
2018-09-20T19:55:41.244Z,6.10
2018-09-20T19:57:43.880Z,6.10
2018-09-20T19:59:45.934Z,5.60
2018-09-20T20:01:47.954Z,5.10
2018-09-20T20:03:50.025Z,4.80
2018-09-20T20:05:52.072Z,4.80
2018-09-20T20:07:54.226Z,5.10
2018-09-20T20:09:56.269Z,4.00
2018-09-20T20:11:58.306Z,4.20
2018-09-20T20:14:00.428Z,3.60
2018-09-20T20:16:02.461Z,3.20
2018-09-20T20:18:04.503Z,3.20
2018-09-20T20:20:06.551Z,3.00
2018-09-20T20:22:08.585Z,3.70
2018-09-20T20:24:10.605Z,3.30
2018-09-20T20:26:12.693Z,3.40
2018-09-20T20:28:14.706Z,3.30
2018-09-20T20:30:16.738Z,3.20
2018-09-20T20:32:18.801Z,3.20
2018-09-20T20:34:20.833Z,3.10
2018-09-20T20:36:23.106Z,3.50
2018-09-20T20:38:25.203Z,3.80
2018-09-20T20:40:27.221Z,4.30
2018-09-20T20:42:29.261Z,4.70
2018-09-20T20:44:31.310Z,6.00
2018-09-20T20:46:33.348Z,5.80
2018-09-20T20:48:35.386Z,4.80
2018-09-20T20:50:37.446Z,4.60
2018-09-20T20:52:39.486Z,6.40
2018-09-20T20:54:41.545Z,7.10
2018-09-20T20:56:43.621Z,5.60
2018-09-20T20:58:45.720Z,5.80
2018-09-20T21:00:47.718Z,6.90
2018-09-20T21:02:49.746Z,7.10
2018-09-20T21:04:51.778Z,7.30
2018-09-20T21:06:53.788Z,6.10
2018-09-20T21:08:55.811Z,6.60
2018-09-20T21:10:57.853Z,6.90
2018-09-20T21:13:00.117Z,6.10
2018-09-20T21:15:02.392Z,7.60
2018-09-20T21:17:04.608Z,7.20
2018-09-20T21:19:06.844Z,8.30
2018-09-20T21:21:09.094Z,6.30
2018-09-20T21:23:11.309Z,6.90
2018-09-20T21:25:13.676Z,7.20
2018-09-20T21:27:15.972Z,8.70
2018-09-20T21:29:18.270Z,8.00
2018-09-20T21:31:20.499Z,8.80
2018-09-20T21:33:23.024Z,8.40
2018-09-20T21:35:25.342Z,9.10
2018-09-20T21:37:27.550Z,9.90
2018-09-20T21:39:29.831Z,10.20
2018-09-20T21:41:32.117Z,10.80
2018-09-20T21:43:34.333Z,10.30
2018-09-20T21:45:36.526Z,10.00
2018-09-20T21:47:38.762Z,10.20
2018-09-20T21:49:40.962Z,10.20
2018-09-20T21:51:43.154Z,11.50
2018-09-20T21:53:45.375Z,10.70
2018-09-20T21:55:47.616Z,11.20
2018-09-20T21:57:49.830Z,10.70
2018-09-20T21:59:52.009Z,10.60
2018-09-20T22:02:00.116Z,9.60
2018-09-20T22:04:03.842Z,10.10
2018-09-20T22:06:06.042Z,10.50
2018-09-20T22:08:08.240Z,10.50
2018-09-20T22:10:10.446Z,8.70
2018-09-20T22:12:12.613Z,6.90
2018-09-20T22:14:14.846Z,7.10
2018-09-20T22:16:17.043Z,5.40
2018-09-20T22:18:19.210Z,3.80
2018-09-20T22:20:22.166Z,2.60
2018-09-20T22:22:24.326Z,3.60
2018-09-20T22:24:26.547Z,2.00
2018-09-20T22:26:28.745Z,2.60
2018-09-20T22:28:31.077Z,3.80
2018-09-20T22:30:33.234Z,2.50
2018-09-20T22:32:35.406Z,4.00
2018-09-20T22:34:37.550Z,4.50
2018-09-20T22:36:39.710Z,5.60
2018-09-20T22:38:41.847Z,5.60
2018-09-20T22:40:44.042Z,6.40
2018-09-20T22:42:46.211Z,6.70
2018-09-20T22:44:48.430Z,5.90
2018-09-20T22:46:50.583Z,6.30
2018-09-20T22:48:52.769Z,5.60
2018-09-20T22:50:54.945Z,5.80
2018-09-20T22:52:57.121Z,4.60
2018-09-20T22:54:59.261Z,4.00
2018-09-20T22:57:01.474Z,4.90
2018-09-20T22:59:03.676Z,3.50
2018-09-20T23:01:05.854Z,3.70
2018-09-20T23:03:08.067Z,3.50
2018-09-20T23:05:10.331Z,2.80
2018-09-20T23:07:12.650Z,2.40
2018-09-20T23:09:14.818Z,2.50
2018-09-20T23:11:17.002Z,3.00
2018-09-20T23:13:19.170Z,1.00
2018-09-20T23:15:21.334Z,1.00
2018-09-20T23:17:23.518Z,1.00
2018-09-20T23:19:25.727Z,2.00
2018-09-20T23:21:27.937Z,3.40
2018-09-20T23:23:30.183Z,4.30
2018-09-20T23:25:32.338Z,4.80
2018-09-20T23:27:34.534Z,1.90
2018-09-20T23:29:36.769Z,1.00
2018-09-20T23:31:38.919Z,1.00
2018-09-20T23:33:41.010Z,1.00
2018-09-20T23:35:43.182Z,1.00
2018-09-20T23:37:45.363Z,1.00
2018-09-20T23:39:47.510Z,1.00
2018-09-20T23:41:49.584Z,1.00
2018-09-20T23:43:51.630Z,1.00
2018-09-20T23:45:53.698Z,1.00
2018-09-20T23:47:55.754Z,1.00
2018-09-20T23:49:57.787Z,1.00
2018-09-20T23:51:59.858Z,1.00
2018-09-20T23:54:01.890Z,1.00
2018-09-20T23:56:04.018Z,1.00
2018-09-20T23:58:06.038Z,1.00
